sensor_id;sensor_type;location;lat;lon;timestamp;pressure;altitude;pressure_sealevel;temperature;humidity
17785;BME280;9016;53.582;10.062;2023-04-08T00:01:04;102270.50;;;8.78;79.77
17785;BME280;9016;53.582;10.062;2023-04-08T00:03:32;102271.69;;;8.68;80.40
17785;BME280;9016;53.582;10.062;2023-04-08T00:06:00;102276.69;;;8.79;81.29
17785;BME280;9016;53.582;10.062;2023-04-08T00:08:29;102277.31;;;8.88;79.68
17785;BME280;9016;53.582;10.062;2023-04-08T00:10:57;102278.47;;;8.78;80.52
17785;BME280;9016;53.582;10.062;2023-04-08T00:13:25;102279.34;;;8.79;80.38
17785;BME280;9016;53.582;10.062;2023-04-08T00:15:55;102283.09;;;8.72;80.61
17785;BME280;9016;53.582;10.062;2023-04-08T00:18:23;102289.31;;;8.71;81.30
17785;BME280;9016;53.582;10.062;2023-04-08T00:20:51;102289.13;;;8.77;80.92
17785;BME280;9016;53.582;10.062;2023-04-08T00:23:19;102291.81;;;8.77;80.77
17785;BME280;9016;53.582;10.062;2023-04-08T00:25:48;102289.09;;;8.78;80.95
17785;BME280;9016;53.582;10.062;2023-04-08T00:28:16;102285.44;;;8.82;80.42
17785;BME280;9016;53.582;10.062;2023-04-08T00:30:44;102275.53;;;8.89;79.32
17785;BME280;9016;53.582;10.062;2023-04-08T00:33:14;102282.63;;;8.88;80.56
17785;BME280;9016;53.582;10.062;2023-04-08T00:35:42;102278.47;;;8.78;80.64
17785;BME280;9016;53.582;10.062;2023-04-08T00:38:10;102277.25;;;8.90;79.58
17785;BME280;9016;53.582;10.062;2023-04-08T00:40:38;102284.84;;;9.04;79.50
17785;BME280;9016;53.582;10.062;2023-04-08T00:43:06;102288.31;;;9.06;78.96
17785;BME280;9016;53.582;10.062;2023-04-08T00:45:34;102292.19;;;8.94;79.50
17785;BME280;9016;53.582;10.062;2023-04-08T00:48:03;102290.41;;;8.94;79.40
17785;BME280;9016;53.582;10.062;2023-04-08T00:50:33;102283.56;;;8.86;78.89
17785;BME280;9016;53.582;10.062;2023-04-08T00:53:01;102285.44;;;8.82;80.49
17785;BME280;9016;53.582;10.062;2023-04-08T00:55:29;102286.00;;;8.93;79.41
17785;BME280;9016;53.582;10.062;2023-04-08T00:57:57;102288.72;;;8.92;78.87
17785;BME280;9016;53.582;10.062;2023-04-08T01:00:25;102284.06;;;8.98;79.19
17785;BME280;9016;53.582;10.062;2023-04-08T01:03:00;102293.25;;;8.88;79.35
17785;BME280;9016;53.582;10.062;2023-04-08T01:05:39;102293.88;;;8.96;78.74
17785;BME280;9016;53.582;10.062;2023-04-08T01:08:10;102293.72;;;9.02;79.36
17785;BME280;9016;53.582;10.062;2023-04-08T01:10:40;102292.38;;;8.88;79.48
17785;BME280;9016;53.582;10.062;2023-04-08T01:13:13;102291.63;;;8.83;79.73
17785;BME280;9016;53.582;10.062;2023-04-08T01:15:45;102284.44;;;8.86;79.40
17785;BME280;9016;53.582;10.062;2023-04-08T01:18:14;102294.03;;;8.92;79.69
17785;BME280;9016;53.582;10.062;2023-04-08T01:20:45;102289.28;;;9.03;79.38
17785;BME280;9016;53.582;10.062;2023-04-08T01:23:23;102292.75;;;9.05;78.77
17785;BME280;9016;53.582;10.062;2023-04-08T01:25:54;102296.31;;;9.06;78.51
17785;BME280;9016;53.582;10.062;2023-04-08T01:28:25;102285.91;;;8.96;78.84
17785;BME280;9016;53.582;10.062;2023-04-08T01:30:55;102282.91;;;9.09;78.05
17785;BME280;9016;53.582;10.062;2023-04-08T01:33:23;102286.44;;;9.09;78.02
17785;BME280;9016;53.582;10.062;2023-04-08T01:35:52;102281.56;;;9.23;78.05
17785;BME280;9016;53.582;10.062;2023-04-08T01:38:23;102285.22;;;9.19;77.85
17785;BME280;9016;53.582;10.062;2023-04-08T01:40:54;102281.53;;;9.25;77.72
17785;BME280;9016;53.582;10.062;2023-04-08T01:43:23;102284.97;;;8.99;77.93
17785;BME280;9016;53.582;10.062;2023-04-08T01:45:53;102284.63;;;9.10;78.39
17785;BME280;9016;53.582;10.062;2023-04-08T01:48:24;102282.19;;;9.04;77.70
17785;BME280;9016;53.582;10.062;2023-04-08T01:50:53;102280.72;;;8.92;78.84
17785;BME280;9016;53.582;10.062;2023-04-08T01:53:22;102280.94;;;8.84;79.60
17785;BME280;9016;53.582;10.062;2023-04-08T01:55:56;102277.31;;;8.88;79.69
17785;BME280;9016;53.582;10.062;2023-04-08T01:58:28;102261.72;;;9.06;78.94
17785;BME280;9016;53.582;10.062;2023-04-08T02:00:59;102266.25;;;9.02;78.50
17785;BME280;9016;53.582;10.062;2023-04-08T02:03:27;102258.09;;;9.08;77.84
17785;BME280;9016;53.582;10.062;2023-04-08T02:05:57;102260.81;;;9.07;77.72
17785;BME280;9016;53.582;10.062;2023-04-08T02:08:25;102266.13;;;9.07;78.64
17785;BME280;9016;53.582;10.062;2023-04-08T02:10:53;102261.47;;;9.15;77.54
17785;BME280;9016;53.582;10.062;2023-04-08T02:13:23;102262.53;;;9.08;76.93
17785;BME280;9016;53.582;10.062;2023-04-08T02:15:56;102264.19;;;9.12;78.17
17785;BME280;9016;53.582;10.062;2023-04-08T02:18:31;102257.88;;;9.16;76.79
17785;BME280;9016;53.582;10.062;2023-04-08T02:21:07;102256.25;;;9.10;77.04
17785;BME280;9016;53.582;10.062;2023-04-08T02:23:37;102261.25;;;8.91;77.48
17785;BME280;9016;53.582;10.062;2023-04-08T02:26:08;102261.41;;;8.85;77.46
17785;BME280;9016;53.582;10.062;2023-04-08T02:28:41;102259.81;;;8.80;78.24
17785;BME280;9016;53.582;10.062;2023-04-08T02:31:11;102262.78;;;8.69;79.42
17785;BME280;9016;53.582;10.062;2023-04-08T02:33:40;102262.47;;;8.80;78.60
17785;BME280;9016;53.582;10.062;2023-04-08T02:36:10;102260.06;;;8.71;79.65
17785;BME280;9016;53.582;10.062;2023-04-08T02:38:39;102263.44;;;8.77;79.05
17785;BME280;9016;53.582;10.062;2023-04-08T02:41:07;102262.72;;;8.71;79.21
17785;BME280;9016;53.582;10.062;2023-04-08T02:43:35;102267.19;;;8.70;79.11
17785;BME280;9016;53.582;10.062;2023-04-08T02:46:05;102265.38;;;8.72;78.78
17785;BME280;9016;53.582;10.062;2023-04-08T02:48:34;102277.16;;;8.62;79.86
17785;BME280;9016;53.582;10.062;2023-04-08T02:51:02;102281.53;;;8.63;79.23
17785;BME280;9016;53.582;10.062;2023-04-08T02:53:30;102279.66;;;8.68;79.04
17785;BME280;9016;53.582;10.062;2023-04-08T02:55:58;102282.72;;;8.53;79.22
17785;BME280;9016;53.582;10.062;2023-04-08T02:58:26;102280.13;;;8.52;80.10
17785;BME280;9016;53.582;10.062;2023-04-08T03:00:54;102277.56;;;8.47;80.26
17785;BME280;9016;53.582;10.062;2023-04-08T03:03:24;102273.25;;;8.43;80.78
17785;BME280;9016;53.582;10.062;2023-04-08T03:05:56;102274.75;;;8.53;80.48
17785;BME280;9016;53.582;10.062;2023-04-08T03:08:24;102273.78;;;8.56;80.29
17785;BME280;9016;53.582;10.062;2023-04-08T03:10:52;102273.00;;;8.52;80.58
17785;BME280;9016;53.582;10.062;2023-04-08T03:13:20;102283.63;;;8.52;79.95
17785;BME280;9016;53.582;10.062;2023-04-08T03:15:48;102283.81;;;8.46;80.74
17785;BME280;9016;53.582;10.062;2023-04-08T03:18:19;102283.72;;;8.49;80.86
17785;BME280;9016;53.582;10.062;2023-04-08T03:20:49;102293.06;;;8.64;79.58
17785;BME280;9016;53.582;10.062;2023-04-08T03:23:16;102286.53;;;8.75;80.10
17785;BME280;9016;53.582;10.062;2023-04-08T03:25:44;102294.75;;;8.66;79.88
17785;BME280;9016;53.582;10.062;2023-04-08T03:28:13;102297.38;;;8.68;79.65
17785;BME280;9016;53.582;10.062;2023-04-08T03:30:41;102302.47;;;8.43;81.55
17785;BME280;9016;53.582;10.062;2023-04-08T03:33:09;102299.41;;;8.58;81.61
17785;BME280;9016;53.582;10.062;2023-04-08T03:35:37;102311.81;;;8.58;80.97
17785;BME280;9016;53.582;10.062;2023-04-08T03:38:06;102301.91;;;8.64;81.44
17785;BME280;9016;53.582;10.062;2023-04-08T03:40:34;102307.53;;;8.52;80.97
17785;BME280;9016;53.582;10.062;2023-04-08T03:43:02;102311.84;;;8.56;81.17
17785;BME280;9016;53.582;10.062;2023-04-08T03:45:32;102309.78;;;8.67;80.54
17785;BME280;9016;53.582;10.062;2023-04-08T03:48:00;102309.16;;;8.58;80.45
17785;BME280;9016;53.582;10.062;2023-04-08T03:50:28;102318.59;;;8.37;81.70
17785;BME280;9016;53.582;10.062;2023-04-08T03:52:56;102313.59;;;8.24;84.14
17785;BME280;9016;53.582;10.062;2023-04-08T03:55:26;102315.16;;;8.32;83.26
17785;BME280;9016;53.582;10.062;2023-04-08T03:57:54;102317.19;;;8.21;84.18
17785;BME280;9016;53.582;10.062;2023-04-08T04:00:22;102312.78;;;8.20;83.97
17785;BME280;9016;53.582;10.062;2023-04-08T04:02:50;102320.66;;;8.26;85.07
17785;BME280;9016;53.582;10.062;2023-04-08T04:05:18;102320.06;;;8.12;84.35
17785;BME280;9016;53.582;10.062;2023-04-08T04:07:46;102326.75;;;8.28;84.89
17785;BME280;9016;53.582;10.062;2023-04-08T04:10:15;102315.16;;;8.32;84.31
17785;BME280;9016;53.582;10.062;2023-04-08T04:12:44;102322.44;;;8.23;83.94
17785;BME280;9016;53.582;10.062;2023-04-08T04:15:13;102326.03;;;8.22;84.77
17785;BME280;9016;53.582;10.062;2023-04-08T04:17:41;102320.81;;;8.19;84.04
17785;BME280;9016;53.582;10.062;2023-04-08T04:20:10;102331.09;;;8.32;84.86
17785;BME280;9016;53.582;10.062;2023-04-08T04:22:38;102329.28;;;8.34;84.36
17785;BME280;9016;53.582;10.062;2023-04-08T04:25:07;102333.00;;;8.27;83.88
17785;BME280;9016;53.582;10.062;2023-04-08T04:27:35;102331.88;;;8.36;84.08
17785;BME280;9016;53.582;10.062;2023-04-08T04:30:06;102334.94;;;8.19;84.50
17785;BME280;9016;53.582;10.062;2023-04-08T04:32:35;102334.72;;;8.28;84.28
17785;BME280;9016;53.582;10.062;2023-04-08T04:35:03;102336.53;;;8.28;84.85
17785;BME280;9016;53.582;10.062;2023-04-08T04:37:32;102333.00;;;8.27;83.52
17785;BME280;9016;53.582;10.062;2023-04-08T04:40:03;102343.53;;;8.30;85.15
17785;BME280;9016;53.582;10.062;2023-04-08T04:42:31;102346.56;;;8.15;85.44
17785;BME280;9016;53.582;10.062;2023-04-08T04:45:00;102339.91;;;8.34;85.11
17785;BME280;9016;53.582;10.062;2023-04-08T04:47:29;102340.13;;;8.24;84.96
17785;BME280;9016;53.582;10.062;2023-04-08T04:49:58;102345.13;;;8.02;85.60
17785;BME280;9016;53.582;10.062;2023-04-08T04:52:26;102350.16;;;8.13;86.32
17785;BME280;9016;53.582;10.062;2023-04-08T04:54:56;102357.69;;;8.31;85.46
17785;BME280;9016;53.582;10.062;2023-04-08T04:57:24;102359.84;;;8.14;85.09
17785;BME280;9016;53.582;10.062;2023-04-08T04:59:52;102367.53;;;8.27;85.62
17785;BME280;9016;53.582;10.062;2023-04-08T05:02:20;102365.28;;;8.46;84.74
17785;BME280;9016;53.582;10.062;2023-04-08T05:04:50;102363.25;;;8.55;83.69
17785;BME280;9016;53.582;10.062;2023-04-08T05:07:19;102365.78;;;8.60;83.71
17785;BME280;9016;53.582;10.062;2023-04-08T05:09:47;102370.78;;;8.72;83.54
17785;BME280;9016;53.582;10.062;2023-04-08T05:12:15;102371.03;;;8.63;82.32
17785;BME280;9016;53.582;10.062;2023-04-08T05:14:43;102366.78;;;8.56;83.19
17785;BME280;9016;53.582;10.062;2023-04-08T05:17:11;102372.09;;;8.56;84.25
17785;BME280;9016;53.582;10.062;2023-04-08T05:19:39;102377.00;;;8.71;83.33
17785;BME280;9016;53.582;10.062;2023-04-08T05:22:09;102373.81;;;8.58;82.96
17785;BME280;9016;53.582;10.062;2023-04-08T05:24:37;102375.03;;;8.45;84.24
17785;BME280;9016;53.582;10.062;2023-04-08T05:27:05;102379.59;;;8.40;84.69
17785;BME280;9016;53.582;10.062;2023-04-08T05:29:33;102378.22;;;8.23;85.23
17785;BME280;9016;53.582;10.062;2023-04-08T05:32:01;102369.91;;;8.38;83.94
17785;BME280;9016;53.582;10.062;2023-04-08T05:34:30;102381.09;;;8.50;84.04
17785;BME280;9016;53.582;10.062;2023-04-08T05:36:58;102383.13;;;8.39;84.27
17785;BME280;9016;53.582;10.062;2023-04-08T05:39:27;102385.84;;;8.38;84.46
17785;BME280;9016;53.582;10.062;2023-04-08T05:41:56;102390.53;;;8.27;84.49
17785;BME280;9016;53.582;10.062;2023-04-08T05:44:24;102389.16;;;8.47;84.88
17785;BME280;9016;53.582;10.062;2023-04-08T05:46:52;102395.44;;;8.43;85.93
17785;BME280;9016;53.582;10.062;2023-04-08T05:49:21;102389.84;;;8.55;84.28
17785;BME280;9016;53.582;10.062;2023-04-08T05:51:49;102392.09;;;8.70;84.12
17785;BME280;9016;53.582;10.062;2023-04-08T05:54:16;102391.66;;;8.85;83.40
17785;BME280;9016;53.582;10.062;2023-04-08T05:56:46;102398.78;;;8.51;83.22
17785;BME280;9016;53.582;10.062;2023-04-08T05:59:14;102402.28;;;8.53;83.50
17785;BME280;9016;53.582;10.062;2023-04-08T06:01:43;102396.19;;;8.50;84.33
17785;BME280;9016;53.582;10.062;2023-04-08T06:04:11;102397.00;;;8.15;84.90
17785;BME280;9016;53.582;10.062;2023-04-08T06:06:40;102407.59;;;8.17;86.38
17785;BME280;9016;53.582;10.062;2023-04-08T06:09:08;102411.75;;;8.28;84.88
17785;BME280;9016;53.582;10.062;2023-04-08T06:11:36;102409.97;;;8.29;84.97
17785;BME280;9016;53.582;10.062;2023-04-08T06:14:07;102403.59;;;8.36;85.89
17785;BME280;9016;53.582;10.062;2023-04-08T06:16:37;102420.31;;;8.39;85.46
17785;BME280;9016;53.582;10.062;2023-04-08T06:19:05;102425.69;;;8.38;84.36
17785;BME280;9016;53.582;10.062;2023-04-08T06:21:34;102428.56;;;8.29;85.07
17785;BME280;9016;53.582;10.062;2023-04-08T06:24:04;102426.03;;;8.24;85.57
17785;BME280;9016;53.582;10.062;2023-04-08T06:26:33;102425.81;;;8.33;85.26
17785;BME280;9016;53.582;10.062;2023-04-08T06:29:01;102425.84;;;8.32;84.64
17785;BME280;9016;53.582;10.062;2023-04-08T06:31:32;102432.34;;;8.17;86.74
17785;BME280;9016;53.582;10.062;2023-04-08T06:34:08;102426.88;;;8.25;86.70
17785;BME280;9016;53.582;10.062;2023-04-08T06:36:39;102427.31;;;8.43;85.76
17785;BME280;9016;53.582;10.062;2023-04-08T06:39:08;102440.03;;;8.31;85.51
17785;BME280;9016;53.582;10.062;2023-04-08T06:41:39;102439.09;;;8.33;85.89
17785;BME280;9016;53.582;10.062;2023-04-08T06:44:07;102442.81;;;8.25;85.58
17785;BME280;9016;53.582;10.062;2023-04-08T06:46:39;102441.13;;;8.21;86.50
17785;BME280;9016;53.582;10.062;2023-04-08T06:49:07;102447.56;;;8.11;86.35
17785;BME280;9016;53.582;10.062;2023-04-08T06:51:39;102450.06;;;8.17;86.40
17785;BME280;9016;53.582;10.062;2023-04-08T06:54:10;102457.28;;;8.10;86.53
17785;BME280;9016;53.582;10.062;2023-04-08T06:56:38;102466.84;;;8.19;86.40
17785;BME280;9016;53.582;10.062;2023-04-08T06:59:06;102463.13;;;8.27;86.38
17785;BME280;9016;53.582;10.062;2023-04-08T07:01:34;102456.84;;;8.31;85.86
17785;BME280;9016;53.582;10.062;2023-04-08T07:04:30;102466.22;;;8.46;84.13
17785;BME280;9016;53.582;10.062;2023-04-08T07:07:18;102472.97;;;8.22;85.54
17785;BME280;9016;53.582;10.062;2023-04-08T07:09:49;102467.09;;;8.07;85.26
17785;BME280;9016;53.582;10.062;2023-04-08T07:12:17;102471.41;;;8.12;85.90
17785;BME280;9016;53.582;10.062;2023-04-08T07:14:45;102476.41;;;8.27;85.97
17785;BME280;9016;53.582;10.062;2023-04-08T07:17:13;102467.25;;;8.40;84.42
17785;BME280;9016;53.582;10.062;2023-04-08T07:19:43;102471.81;;;8.35;83.58
17785;BME280;9016;53.582;10.062;2023-04-08T07:22:11;102473.78;;;8.26;85.27
17785;BME280;9016;53.582;10.062;2023-04-08T07:24:39;102470.19;;;8.28;85.53
17785;BME280;9016;53.582;10.062;2023-04-08T07:27:08;102464.41;;;8.48;83.96
17785;BME280;9016;53.582;10.062;2023-04-08T07:29:36;102477.16;;;8.70;83.41
17785;BME280;9016;53.582;10.062;2023-04-08T07:32:04;102468.75;;;8.52;82.73
17785;BME280;9016;53.582;10.062;2023-04-08T07:34:33;102466.97;;;8.86;82.39
17785;BME280;9016;53.582;10.062;2023-04-08T07:37:03;102475.19;;;8.77;81.53
17785;BME280;9016;53.582;10.062;2023-04-08T07:39:31;102479.09;;;8.97;81.66
17785;BME280;9016;53.582;10.062;2023-04-08T07:41:59;102479.09;;;8.97;82.27
17785;BME280;9016;53.582;10.062;2023-04-08T07:44:30;102477.41;;;8.93;82.20
17785;BME280;9016;53.582;10.062;2023-04-08T07:47:00;102484.16;;;9.07;81.95
17785;BME280;9016;53.582;10.062;2023-04-08T07:49:28;102487.78;;;9.04;82.36
17785;BME280;9016;53.582;10.062;2023-04-08T07:51:56;102489.97;;;9.21;81.13
17785;BME280;9016;53.582;10.062;2023-04-08T07:54:26;102493.56;;;9.20;80.88
17785;BME280;9016;53.582;10.062;2023-04-08T07:56:54;102501.84;;;9.09;80.83
17785;BME280;9016;53.582;10.062;2023-04-08T07:59:22;102507.72;;;9.22;80.53
17785;BME280;9016;53.582;10.062;2023-04-08T08:01:51;102501.66;;;9.17;79.64
17785;BME280;9016;53.582;10.062;2023-04-08T08:04:19;102511.47;;;9.13;80.11
17785;BME280;9016;53.582;10.062;2023-04-08T08:06:47;102512.50;;;9.08;81.02
17785;BME280;9016;53.582;10.062;2023-04-08T08:09:15;102524.94;;;9.07;81.42
17785;BME280;9016;53.582;10.062;2023-04-08T08:11:45;102517.75;;;9.11;81.03
17785;BME280;9016;53.582;10.062;2023-04-08T08:14:13;102513.38;;;9.08;80.14
17785;BME280;9016;53.582;10.062;2023-04-08T08:16:41;102520.72;;;8.98;80.83
17785;BME280;9016;53.582;10.062;2023-04-08T08:19:10;102513.69;;;8.96;79.71
17785;BME280;9016;53.582;10.062;2023-04-08T08:21:39;102514.25;;;9.09;81.44
17785;BME280;9016;53.582;10.062;2023-04-08T08:24:07;102510.72;;;9.08;80.00
17785;BME280;9016;53.582;10.062;2023-04-08T08:26:35;102519.72;;;9.02;80.68
17785;BME280;9016;53.582;10.062;2023-04-08T08:29:05;102517.34;;;9.26;79.32
17785;BME280;9016;53.582;10.062;2023-04-08T08:31:34;102518.19;;;9.28;79.51
17785;BME280;9016;53.582;10.062;2023-04-08T08:34:02;102514.84;;;9.20;79.14
17785;BME280;9016;53.582;10.062;2023-04-08T08:36:30;102523.31;;;9.34;79.27
17785;BME280;9016;53.582;10.062;2023-04-08T08:39:00;102527.25;;;9.53;78.55
17785;BME280;9016;53.582;10.062;2023-04-08T08:41:32;102530.47;;;9.32;76.87
17785;BME280;9016;53.582;10.062;2023-04-08T08:44:01;102535.38;;;9.15;79.61
17785;BME280;9016;53.582;10.062;2023-04-08T08:46:33;102526.38;;;9.19;79.89
17785;BME280;9016;53.582;10.062;2023-04-08T08:49:01;102533.56;;;9.49;79.35
17785;BME280;9016;53.582;10.062;2023-04-08T08:51:30;102539.13;;;9.72;77.28
17785;BME280;9016;53.582;10.062;2023-04-08T08:54:01;102534.75;;;9.69;77.79
17785;BME280;9016;53.582;10.062;2023-04-08T08:56:31;102544.63;;;9.66;76.23
17785;BME280;9016;53.582;10.062;2023-04-08T08:58:59;102539.00;;;9.76;76.76
17785;BME280;9016;53.582;10.062;2023-04-08T09:01:33;102536.00;;;9.88;76.25
17785;BME280;9016;53.582;10.062;2023-04-08T09:04:08;102532.56;;;9.83;76.45
17785;BME280;9016;53.582;10.062;2023-04-08T09:06:37;102538.88;;;9.81;76.15
17785;BME280;9016;53.582;10.062;2023-04-08T09:09:05;102540.72;;;9.79;76.39
17785;BME280;9016;53.582;10.062;2023-04-08T09:11:36;102545.44;;;9.98;75.08
17785;BME280;9016;53.582;10.062;2023-04-08T09:14:15;102540.72;;;9.79;74.81
17785;BME280;9016;53.582;10.062;2023-04-08T09:16:45;102548.25;;;9.94;74.57
17785;BME280;9016;53.582;10.062;2023-04-08T09:19:13;102557.63;;;9.76;75.01
17785;BME280;9016;53.582;10.062;2023-04-08T09:21:42;102555.13;;;9.72;75.60
17785;BME280;9016;53.582;10.062;2023-04-08T09:24:26;102562.00;;;9.79;75.37
17785;BME280;9016;53.582;10.062;2023-04-08T09:26:55;102561.22;;;9.75;75.35
17785;BME280;9016;53.582;10.062;2023-04-08T09:29:23;102571.63;;;9.84;75.32
17785;BME280;9016;53.582;10.062;2023-04-08T09:31:57;102559.25;;;9.82;75.05
17785;BME280;9016;53.582;10.062;2023-04-08T09:34:27;102565.09;;;9.94;74.99
17785;BME280;9016;53.582;10.062;2023-04-08T09:36:56;102567.75;;;9.94;74.83
17785;BME280;9016;53.582;10.062;2023-04-08T09:39:24;102555.88;;;10.06;75.74
17785;BME280;9016;53.582;10.062;2023-04-08T09:41:52;102560.25;;;10.10;75.08
17785;BME280;9016;53.582;10.062;2023-04-08T09:44:27;102570.41;;;10.27;73.92
17785;BME280;9016;53.582;10.062;2023-04-08T09:47:04;102570.91;;;10.39;72.99
17785;BME280;9016;53.582;10.062;2023-04-08T09:49:39;102573.63;;;10.38;73.24
17785;BME280;9016;53.582;10.062;2023-04-08T09:52:13;102572.97;;;10.30;72.61
17785;BME280;9016;53.582;10.062;2023-04-08T09:54:47;102573.28;;;10.19;72.95
17785;BME280;9016;53.582;10.062;2023-04-08T09:57:21;102577.47;;;9.97;74.50
17785;BME280;9016;53.582;10.062;2023-04-08T09:59:59;102569.19;;;10.06;73.96
17785;BME280;9016;53.582;10.062;2023-04-08T10:02:40;102574.28;;;10.15;74.48
17785;BME280;9016;53.582;10.062;2023-04-08T10:05:12;102576.06;;;10.16;74.43
17785;BME280;9016;53.582;10.062;2023-04-08T10:07:41;102566.53;;;10.37;74.01
17785;BME280;9016;53.582;10.062;2023-04-08T10:10:09;102570.53;;;10.51;72.55
17785;BME280;9016;53.582;10.062;2023-04-08T10:12:38;102572.88;;;10.33;73.12
17785;BME280;9016;53.582;10.062;2023-04-08T10:15:26;102566.25;;;10.17;74.88
17785;BME280;9016;53.582;10.062;2023-04-08T10:18:31;102568.63;;;10.27;73.76
17785;BME280;9016;53.582;10.062;2023-04-08T10:21:03;102570.44;;;10.25;73.73
17785;BME280;9016;53.582;10.062;2023-04-08T10:23:54;102577.88;;;10.43;72.69
17785;BME280;9016;53.582;10.062;2023-04-08T10:26:30;102572.56;;;10.14;73.36
17785;BME280;9016;53.582;10.062;2023-04-08T10:29:30;102579.84;;;10.06;74.62
17785;BME280;9016;53.582;10.062;2023-04-08T10:31:59;102577.13;;;10.08;74.27
17785;BME280;9016;53.582;10.062;2023-04-08T10:34:29;102579.25;;;9.96;75.04
17785;BME280;9016;53.582;10.062;2023-04-08T10:36:57;102576.34;;;10.04;74.99
17785;BME280;9016;53.582;10.062;2023-04-08T10:39:27;102574.00;;;9.93;74.66
17785;BME280;9016;53.582;10.062;2023-04-08T10:41:57;102572.34;;;10.22;73.63
17785;BME280;9016;53.582;10.062;2023-04-08T10:44:28;102576.06;;;10.15;73.66
17785;BME280;9016;53.582;10.062;2023-04-08T10:46:56;102570.13;;;10.36;73.30
17785;BME280;9016;53.582;10.062;2023-04-08T10:49:32;102579.44;;;10.50;73.46
17785;BME280;9016;53.582;10.062;2023-04-08T10:52:06;102582.94;;;10.52;72.77
17785;BME280;9016;53.582;10.062;2023-04-08T10:54:34;102580.88;;;10.62;72.41
17785;BME280;9016;53.582;10.062;2023-04-08T10:57:04;102577.66;;;10.22;73.63
17785;BME280;9016;53.582;10.062;2023-04-08T10:59:33;102581.84;;;9.99;74.10
17785;BME280;9016;53.582;10.062;2023-04-08T11:02:02;102583.44;;;10.05;73.98
17785;BME280;9016;53.582;10.062;2023-04-08T11:04:32;102577.00;;;10.14;73.83
17785;BME280;9016;53.582;10.062;2023-04-08T11:07:04;102585.66;;;10.22;73.58
17785;BME280;9016;53.582;10.062;2023-04-08T11:09:33;102584.84;;;10.18;74.80
17785;BME280;9016;53.582;10.062;2023-04-08T11:12:01;102585.34;;;10.00;75.17
17785;BME280;9016;53.582;10.062;2023-04-08T11:14:30;102581.56;;;10.10;74.42
17785;BME280;9016;53.582;10.062;2023-04-08T11:16:58;102578.44;;;10.25;74.73
17785;BME280;9016;53.582;10.062;2023-04-08T11:19:27;102589.28;;;10.19;74.28
17785;BME280;9016;53.582;10.062;2023-04-08T11:21:57;102584.81;;;10.49;73.46
17785;BME280;9016;53.582;10.062;2023-04-08T11:24:26;102585.88;;;10.43;73.63
17785;BME280;9016;53.582;10.062;2023-04-08T11:26:54;102589.16;;;10.53;73.99
17785;BME280;9016;53.582;10.062;2023-04-08T11:29:22;102590.16;;;10.49;73.22
17785;BME280;9016;53.582;10.062;2023-04-08T11:31:51;102588.31;;;10.51;72.98
17785;BME280;9016;53.582;10.062;2023-04-08T11:34:22;102592.28;;;10.38;73.91
17785;BME280;9016;53.582;10.062;2023-04-08T11:36:51;102579.06;;;10.35;73.61
17785;BME280;9016;53.582;10.062;2023-04-08T11:39:22;102581.50;;;10.41;73.94
17785;BME280;9016;53.582;10.062;2023-04-08T11:41:51;102585.59;;;10.52;73.24
17785;BME280;9016;53.582;10.062;2023-04-08T11:44:19;102581.38;;;10.45;73.53
17785;BME280;9016;53.582;10.062;2023-04-08T11:46:56;102583.59;;;10.60;72.86
17785;BME280;9016;53.582;10.062;2023-04-08T11:49:24;102583.81;;;10.53;71.90
17785;BME280;9016;53.582;10.062;2023-04-08T11:51:54;102581.38;;;10.16;74.04
17785;BME280;9016;53.582;10.062;2023-04-08T11:54:28;102585.16;;;10.38;74.23
17785;BME280;9016;53.582;10.062;2023-04-08T11:56:56;102586.53;;;10.51;73.31
17785;BME280;9016;53.582;10.062;2023-04-08T11:59:25;102589.06;;;10.27;72.98
17785;BME280;9016;53.582;10.062;2023-04-08T12:01:55;102592.59;;;10.27;73.88
17785;BME280;9016;53.582;10.062;2023-04-08T12:04:23;102589.75;;;10.62;73.50
17785;BME280;9016;53.582;10.062;2023-04-08T12:06:52;102588.88;;;10.62;72.11
17785;BME280;9016;53.582;10.062;2023-04-08T12:09:23;102597.34;;;10.74;71.26
17785;BME280;9016;53.582;10.062;2023-04-08T12:11:54;102594.72;;;11.01;70.50
17785;BME280;9016;53.582;10.062;2023-04-08T12:14:24;102594.63;;;10.76;71.37
17785;BME280;9016;53.582;10.062;2023-04-08T12:16:54;102600.22;;;10.39;73.16
17785;BME280;9016;53.582;10.062;2023-04-08T12:19:22;102600.44;;;10.61;70.87
17785;BME280;9016;53.582;10.062;2023-04-08T12:21:52;102605.75;;;10.61;71.74
17785;BME280;9016;53.582;10.062;2023-04-08T12:24:20;102605.28;;;10.76;72.03
17785;BME280;9016;53.582;10.062;2023-04-08T12:26:49;102599.91;;;10.77;71.30
17785;BME280;9016;53.582;10.062;2023-04-08T12:29:19;102600.13;;;10.71;71.68
17785;BME280;9016;53.582;10.062;2023-04-08T12:31:47;102595.84;;;10.93;71.38
17785;BME280;9016;53.582;10.062;2023-04-08T12:34:17;102601.19;;;11.20;70.19
17785;BME280;9016;53.582;10.062;2023-04-08T12:36:45;102590.03;;;11.07;69.76
17785;BME280;9016;53.582;10.062;2023-04-08T12:39:15;102605.22;;;11.05;68.93
17785;BME280;9016;53.582;10.062;2023-04-08T12:41:43;102592.97;;;10.99;70.79
17785;BME280;9016;53.582;10.062;2023-04-08T12:44:12;102599.44;;;11.19;69.03
17785;BME280;9016;53.582;10.062;2023-04-08T12:46:43;102603.63;;;11.01;71.55
17785;BME280;9016;53.582;10.062;2023-04-08T12:49:17;102604.91;;;11.16;71.79
17785;BME280;9016;53.582;10.062;2023-04-08T12:51:45;102606.00;;;11.09;70.73
17785;BME280;9016;53.582;10.062;2023-04-08T12:54:14;102612.41;;;10.75;70.80
17785;BME280;9016;53.582;10.062;2023-04-08T12:56:44;102612.09;;;10.86;71.47
17785;BME280;9016;53.582;10.062;2023-04-08T12:59:15;102605.47;;;10.97;70.79
17785;BME280;9016;53.582;10.062;2023-04-08T13:01:45;102610.91;;;10.94;70.14
17785;BME280;9016;53.582;10.062;2023-04-08T13:04:13;102598.94;;;11.08;71.08
17785;BME280;9016;53.582;10.062;2023-04-08T13:06:42;102604.28;;;11.08;69.05
17785;BME280;9016;53.582;10.062;2023-04-08T13:09:10;102608.59;;;11.12;69.69
17785;BME280;9016;53.582;10.062;2023-04-08T13:11:41;102613.00;;;11.13;69.45